createdAt,value
2018-07-13T00:00:28.339Z,95.46
2018-07-13T00:01:28.340Z,95.75
2018-07-13T00:02:28.341Z,95.75
2018-07-13T00:03:28.341Z,95.70
2018-07-13T00:04:28.342Z,95.07
2018-07-13T00:05:28.343Z,96.03
2018-07-13T00:06:28.352Z,95.31
2018-07-13T00:07:28.387Z,95.84
2018-07-13T00:08:28.345Z,95.21
2018-07-13T00:09:28.347Z,95.41
2018-07-13T00:10:28.348Z,95.03
2018-07-13T00:11:28.350Z,95.03
2018-07-13T00:12:28.349Z,94.07
2018-07-13T00:13:28.351Z,94.17
2018-07-13T00:14:28.351Z,94.45
2018-07-13T00:15:28.352Z,94.17
2018-07-13T00:16:28.352Z,94.07
2018-07-13T00:17:28.354Z,93.59
2018-07-13T00:18:28.355Z,94.17
2018-07-13T00:19:28.354Z,94.17
2018-07-13T00:20:28.355Z,94.26
2018-07-13T00:21:28.356Z,94.07
2018-07-13T00:22:28.357Z,94.07
2018-07-13T00:23:28.358Z,94.45
2018-07-13T00:24:28.358Z,94.40
2018-07-13T00:25:28.359Z,94.31
2018-07-13T00:26:28.360Z,94.21
2018-07-13T00:27:28.359Z,95.07
2018-07-13T00:28:28.361Z,94.31
2018-07-13T00:29:28.361Z,94.02
2018-07-13T00:30:28.361Z,94.40
2018-07-13T00:31:28.363Z,94.69
2018-07-13T00:32:28.362Z,94.50
2018-07-13T00:33:28.364Z,94.69
2018-07-13T00:34:28.367Z,94.31
2018-07-13T00:35:28.364Z,94.98
2018-07-13T00:36:28.364Z,94.69
2018-07-13T00:37:28.366Z,94.69
2018-07-13T00:38:28.365Z,95.17
2018-07-13T00:39:28.368Z,95.26
2018-07-13T00:40:28.367Z,95.17
2018-07-13T00:41:28.369Z,94.98
2018-07-13T00:42:28.369Z,95.26
2018-07-13T00:43:28.370Z,95.56
2018-07-13T00:44:28.369Z,96.42
2018-07-13T00:45:28.369Z,96.61
2018-07-13T00:46:28.370Z,96.37
2018-07-13T00:47:28.370Z,96.56
2018-07-13T00:48:28.370Z,96.47
2018-07-13T00:49:28.373Z,96.70
2018-07-13T00:50:28.373Z,96.84
2018-07-13T00:51:28.374Z,96.66
2018-07-13T00:52:28.373Z,96.56
2018-07-13T00:53:28.377Z,96.70
2018-07-13T00:54:28.376Z,96.75
2018-07-13T00:55:28.375Z,96.32
2018-07-13T00:56:28.375Z,96.18
2018-07-13T00:57:28.376Z,95.51
2018-07-13T00:58:28.378Z,95.84
2018-07-13T00:59:28.377Z,95.94
2018-07-13T01:00:28.378Z,96.03
2018-07-13T01:01:28.378Z,95.94
2018-07-13T01:02:28.378Z,96.08
2018-07-13T01:03:28.380Z,95.89
2018-07-13T01:04:28.379Z,95.56
2018-07-13T01:05:28.382Z,96.51
2018-07-13T01:06:28.380Z,95.84
2018-07-13T01:07:28.381Z,96.13
2018-07-13T01:08:28.383Z,95.36
2018-07-13T01:09:28.383Z,94.98
2018-07-13T01:10:28.382Z,94.79
2018-07-13T01:11:28.383Z,94.98
2018-07-13T01:12:28.383Z,95.70
2018-07-13T01:13:28.382Z,96.47
2018-07-13T01:14:28.383Z,95.98
2018-07-13T01:15:28.384Z,95.65
2018-07-13T01:16:28.384Z,96.08
2018-07-13T01:17:28.383Z,95.79
2018-07-13T01:18:28.385Z,95.70
2018-07-13T01:19:28.386Z,95.89
2018-07-13T01:20:28.384Z,95.70
2018-07-13T01:21:28.385Z,96.47
2018-07-13T01:22:28.386Z,96.47
2018-07-13T01:23:28.387Z,96.84
2018-07-13T01:24:28.386Z,96.66
2018-07-13T01:25:28.388Z,95.98
2018-07-13T01:26:28.388Z,95.70
2018-07-13T01:27:28.388Z,96.08
2018-07-13T01:28:28.391Z,95.98
2018-07-13T01:29:28.389Z,95.98
2018-07-13T01:30:28.388Z,95.79
2018-07-13T01:31:28.390Z,95.41
2018-07-13T01:32:28.388Z,95.12
2018-07-13T01:33:28.389Z,95.12
2018-07-13T01:34:28.389Z,95.12
2018-07-13T01:35:28.390Z,95.98
2018-07-13T01:36:28.390Z,96.08
2018-07-13T01:37:28.390Z,95.79
2018-07-13T01:38:28.391Z,95.79
2018-07-13T01:39:28.392Z,95.51
2018-07-13T01:40:28.391Z,95.98
2018-07-13T01:41:28.391Z,95.79
2018-07-13T01:42:28.391Z,95.79
2018-07-13T01:43:28.392Z,96.18
2018-07-13T01:44:28.390Z,96.66
2018-07-13T01:45:28.392Z,96.47
2018-07-13T01:46:28.393Z,96.18
2018-07-13T01:47:28.393Z,95.70
2018-07-13T01:48:28.397Z,96.56
2018-07-13T01:49:28.393Z,95.89
2018-07-13T01:50:28.392Z,96.47
2018-07-13T01:51:28.393Z,95.60
2018-07-13T01:52:28.392Z,95.89
2018-07-13T01:53:28.392Z,95.79
2018-07-13T01:54:28.393Z,95.70
2018-07-13T01:55:28.392Z,96.27
2018-07-13T01:56:28.393Z,96.37
2018-07-13T01:57:28.393Z,96.56
2018-07-13T01:58:28.393Z,96.75
2018-07-13T01:59:28.393Z,96.47
2018-07-13T02:00:28.394Z,96.56
2018-07-13T02:01:28.394Z,96.37
2018-07-13T02:02:28.393Z,96.80
2018-07-13T02:03:28.396Z,97.04
2018-07-13T02:04:28.393Z,96.61
2018-07-13T02:05:28.393Z,96.70
2018-07-13T02:06:28.394Z,96.99
2018-07-13T02:07:28.394Z,97.38
2018-07-13T02:08:28.394Z,97.66
2018-07-13T02:09:28.393Z,97.95
2018-07-13T02:10:28.394Z,97.95
2018-07-13T02:11:28.393Z,97.85
2018-07-13T02:12:28.396Z,97.85
2018-07-13T02:13:28.398Z,98.14
2018-07-13T02:14:28.394Z,97.85
2018-07-13T02:15:28.394Z,97.95
2018-07-13T02:16:28.394Z,98.05
2018-07-13T02:17:28.394Z,97.85
2018-07-13T02:18:28.395Z,97.95
2018-07-13T02:19:28.394Z,98.43
2018-07-13T02:20:28.395Z,98.43
2018-07-13T02:21:28.393Z,98.14
2018-07-13T02:22:28.394Z,98.14
2018-07-13T02:23:28.393Z,98.24
2018-07-13T02:24:28.393Z,98.24
2018-07-13T02:25:28.393Z,98.05
2018-07-13T02:26:28.392Z,98.24
2018-07-13T02:27:28.394Z,98.05
2018-07-13T02:28:28.392Z,98.14
2018-07-13T02:29:28.394Z,97.95
2018-07-13T02:30:28.392Z,98.24
2018-07-13T02:31:28.393Z,97.95
2018-07-13T02:32:28.392Z,97.85
2018-07-13T02:33:28.391Z,98.43
2018-07-13T02:34:28.392Z,98.33
2018-07-13T02:35:28.396Z,98.05
2018-07-13T02:36:28.393Z,98.19
2018-07-13T02:37:28.394Z,98.05
2018-07-13T02:38:28.391Z,98.24
2018-07-13T02:39:28.391Z,97.85
2018-07-13T02:40:28.390Z,97.95
2018-07-13T02:41:28.391Z,97.85
2018-07-13T02:42:28.393Z,97.85
2018-07-13T02:43:28.389Z,99.19
2018-07-13T02:44:28.388Z,99.00
2018-07-13T02:45:28.390Z,98.91
2018-07-13T02:46:28.390Z,98.91
2018-07-13T02:47:28.391Z,98.33
2018-07-13T02:48:28.387Z,98.19
2018-07-13T02:49:28.388Z,97.95
2018-07-13T02:50:28.389Z,98.52
2018-07-13T02:51:28.389Z,98.81
2018-07-13T02:52:28.387Z,98.52
2018-07-13T02:53:28.386Z,98.05
2018-07-13T02:54:28.388Z,98.57
2018-07-13T02:55:28.388Z,99.00
2018-07-13T02:56:28.387Z,98.52
2018-07-13T02:57:28.387Z,97.90
2018-07-13T02:58:28.389Z,98.09
2018-07-13T02:59:28.386Z,98.47
2018-07-13T03:00:28.385Z,98.38
2018-07-13T03:01:28.385Z,98.76
2018-07-13T03:02:28.385Z,99.15
2018-07-13T03:03:28.387Z,99.15
2018-07-13T03:04:28.383Z,98.95
2018-07-13T03:05:28.383Z,99.05
2018-07-13T03:06:28.385Z,99.05
2018-07-13T03:07:28.384Z,98.95
2018-07-13T03:08:28.383Z,98.76
2018-07-13T03:09:28.381Z,98.76
2018-07-13T03:10:28.382Z,99.15
2018-07-13T03:11:28.382Z,99.33
2018-07-13T03:12:28.382Z,99.24
2018-07-13T03:13:28.380Z,99.24
2018-07-13T03:14:28.379Z,98.76
2018-07-13T03:15:28.380Z,98.86
2018-07-13T03:16:28.378Z,99.15
2018-07-13T03:17:28.391Z,99.43
2018-07-13T03:18:28.380Z,99.43
2018-07-13T03:19:28.378Z,99.99
2018-07-13T03:20:28.378Z,99.96
2018-07-13T03:21:28.377Z,99.99
2018-07-13T03:22:28.375Z,99.62
2018-07-13T03:23:28.375Z,99.33
2018-07-13T03:24:28.374Z,99.48
2018-07-13T03:25:28.375Z,99.10
2018-07-13T03:26:28.373Z,99.29
2018-07-13T03:27:28.373Z,99.52
2018-07-13T03:28:28.372Z,99.99
2018-07-13T03:29:28.375Z,99.24
2018-07-13T03:30:28.372Z,99.43
2018-07-13T03:31:28.373Z,99.05
2018-07-13T03:32:28.370Z,99.15
2018-07-13T03:33:28.369Z,99.24
2018-07-13T03:34:28.370Z,99.33
2018-07-13T03:35:28.372Z,99.05
2018-07-13T03:36:28.367Z,99.91
2018-07-13T03:37:28.368Z,99.33
2018-07-13T03:38:28.484Z,99.24
2018-07-13T03:39:28.369Z,99.24
2018-07-13T03:40:28.367Z,99.05
2018-07-13T03:41:28.366Z,99.05
2018-07-13T03:42:28.368Z,99.33
2018-07-13T03:43:28.365Z,99.15
2018-07-13T03:44:28.365Z,99.15
2018-07-13T03:45:28.362Z,99.43
2018-07-13T03:46:28.362Z,99.24
2018-07-13T03:47:28.362Z,99.15
2018-07-13T03:48:28.372Z,98.95
2018-07-13T03:49:28.363Z,98.86
2018-07-13T03:50:28.360Z,99.05
2018-07-13T03:51:28.361Z,98.95
2018-07-13T03:52:28.359Z,98.86
2018-07-13T03:53:28.359Z,98.95
2018-07-13T03:54:28.362Z,98.95
2018-07-13T03:55:28.359Z,98.86
2018-07-13T03:56:28.358Z,98.86
2018-07-13T03:57:28.356Z,99.72
2018-07-13T03:58:28.356Z,99.43
2018-07-13T03:59:28.357Z,99.43
2018-07-13T04:00:28.373Z,98.95
2018-07-13T04:01:28.354Z,98.76
2018-07-13T04:02:28.356Z,99.72
2018-07-13T04:03:28.355Z,98.95
2018-07-13T04:04:28.357Z,99.33
2018-07-13T04:05:28.354Z,99.52
2018-07-13T04:06:28.413Z,99.52
2018-07-13T04:07:28.352Z,99.43
2018-07-13T04:08:28.352Z,99.43
2018-07-13T04:09:28.352Z,99.15
2018-07-13T04:10:28.351Z,98.95
2018-07-13T04:11:28.350Z,99.24
2018-07-13T04:12:28.401Z,99.15
2018-07-13T04:13:28.350Z,99.62
2018-07-13T04:14:28.350Z,99.24
2018-07-13T04:15:28.350Z,98.95
2018-07-13T04:16:28.348Z,99.62
2018-07-13T04:17:28.348Z,99.05
2018-07-13T04:18:28.346Z,99.52
2018-07-13T04:19:28.347Z,98.86
2018-07-13T04:20:28.346Z,99.33
2018-07-13T04:21:28.349Z,99.48
2018-07-13T04:22:28.345Z,99.99
2018-07-13T04:23:28.345Z,99.99
2018-07-13T04:24:28.346Z,99.24
2018-07-13T04:25:28.344Z,99.15
2018-07-13T04:26:28.345Z,99.33
2018-07-13T04:27:28.343Z,99.52
2018-07-13T04:28:28.343Z,99.05
2018-07-13T04:29:28.342Z,98.57
2018-07-13T04:30:28.342Z,99.24
2018-07-13T04:31:28.342Z,98.95
2018-07-13T04:32:28.341Z,98.95
2018-07-13T04:33:28.340Z,98.47
2018-07-13T04:34:28.340Z,98.19
2018-07-13T04:35:28.340Z,98.66
2018-07-13T04:36:28.339Z,98.57
2018-07-13T04:37:28.340Z,98.24
2018-07-13T04:38:28.339Z,98.28
2018-07-13T04:39:28.387Z,98.09
2018-07-13T04:40:28.338Z,98.09
2018-07-13T04:41:28.338Z,99.29
2018-07-13T04:42:28.339Z,97.90
2018-07-13T04:43:28.337Z,98.14
2018-07-13T04:44:28.339Z,97.75
2018-07-13T04:45:28.336Z,97.95
2018-07-13T04:46:28.336Z,98.05
2018-07-13T04:47:28.336Z,98.05
2018-07-13T04:48:28.335Z,97.75
2018-07-13T04:49:28.336Z,97.09
2018-07-13T04:50:28.337Z,97.66
2018-07-13T04:51:28.335Z,97.56
2018-07-13T04:52:28.334Z,97.28
2018-07-13T04:53:28.334Z,97.47
2018-07-13T04:54:28.333Z,97.66
2018-07-13T04:55:28.334Z,97.56
2018-07-13T04:56:28.332Z,97.56
2018-07-13T04:57:28.333Z,97.38
2018-07-13T04:58:28.333Z,97.66
2018-07-13T04:59:28.333Z,97.18
2018-07-13T05:00:28.333Z,97.75
2018-07-13T05:01:28.332Z,97.56
2018-07-13T05:02:28.331Z,97.28
2018-07-13T05:03:28.332Z,97.95
2018-07-13T05:04:28.332Z,97.95
2018-07-13T05:05:28.331Z,97.56
2018-07-13T05:06:28.331Z,97.75
2018-07-13T05:07:28.333Z,97.56
2018-07-13T05:08:28.331Z,97.56
2018-07-13T05:09:28.334Z,97.38
2018-07-13T05:10:28.330Z,97.47
2018-07-13T05:11:28.331Z,97.38
2018-07-13T05:12:28.332Z,97.95
2018-07-13T05:13:28.329Z,97.75
2018-07-13T05:14:28.331Z,98.05
2018-07-13T05:15:28.330Z,97.09
2018-07-13T05:16:28.329Z,97.38
2018-07-13T05:17:28.329Z,97.23
2018-07-13T05:18:28.330Z,97.71
2018-07-13T05:19:28.332Z,98.00
2018-07-13T05:20:28.328Z,97.52
2018-07-13T05:21:28.329Z,96.84
2018-07-13T05:22:28.330Z,96.94
2018-07-13T05:23:28.333Z,97.61
2018-07-13T05:24:28.329Z,97.52
2018-07-13T05:25:28.329Z,97.33
2018-07-13T05:26:28.331Z,97.04
2018-07-13T05:27:28.332Z,97.33
2018-07-13T05:28:28.330Z,97.33
2018-07-13T05:29:28.331Z,96.66
2018-07-13T05:30:28.330Z,97.04
2018-07-13T05:31:28.331Z,96.84
2018-07-13T05:32:28.331Z,97.14
2018-07-13T05:33:28.337Z,97.33
2018-07-13T05:34:28.331Z,97.42
2018-07-13T05:35:28.332Z,96.47
2018-07-13T05:36:28.331Z,96.47
2018-07-13T05:37:28.334Z,96.89
2018-07-13T05:38:28.446Z,95.94
2018-07-13T05:39:28.333Z,96.08
2018-07-13T05:40:28.332Z,96.13
2018-07-13T05:41:28.333Z,95.84
2018-07-13T05:42:28.333Z,96.32
2018-07-13T05:43:28.335Z,94.79
2018-07-13T05:44:28.334Z,95.56
2018-07-13T05:45:28.334Z,96.32
2018-07-13T05:46:28.337Z,96.22
2018-07-13T05:47:28.337Z,95.07
2018-07-13T05:48:28.336Z,94.54
2018-07-13T05:49:28.336Z,94.31
2018-07-13T05:50:28.339Z,94.12
2018-07-13T05:51:28.339Z,94.64
2018-07-13T05:52:28.339Z,94.64
2018-07-13T05:53:28.339Z,94.35
2018-07-13T05:54:28.405Z,94.17
2018-07-13T05:55:28.388Z,94.35
2018-07-13T05:56:28.341Z,94.35
2018-07-13T05:57:28.340Z,95.03
2018-07-13T05:58:28.343Z,95.12
2018-07-13T05:59:28.342Z,94.84
2018-07-13T06:00:28.344Z,94.54
2018-07-13T06:01:28.345Z,94.26
2018-07-13T06:02:28.346Z,95.31
2018-07-13T06:03:28.346Z,95.31
2018-07-13T06:04:28.347Z,94.84
2018-07-13T06:05:28.348Z,95.41
2018-07-13T06:06:28.349Z,94.64
2018-07-13T06:07:28.350Z,94.45
2018-07-13T06:08:28.349Z,94.17
2018-07-13T06:09:28.352Z,94.26
2018-07-13T06:10:28.352Z,93.73
2018-07-13T06:11:28.353Z,93.25
2018-07-13T06:12:28.352Z,93.06
2018-07-13T06:13:28.357Z,93.44
2018-07-13T06:14:28.356Z,94.21
2018-07-13T06:15:28.359Z,94.31
2018-07-13T06:16:28.361Z,93.63
2018-07-13T06:17:28.395Z,92.96
2018-07-13T06:18:28.360Z,91.81
2018-07-13T06:19:28.362Z,91.62
2018-07-13T06:20:28.363Z,91.62
2018-07-13T06:21:28.364Z,90.66
2018-07-13T06:22:28.366Z,90.52
2018-07-13T06:23:28.365Z,90.32
2018-07-13T06:24:28.367Z,90.42
2018-07-13T06:25:28.369Z,89.94
2018-07-13T06:26:28.370Z,90.52
2018-07-13T06:27:28.371Z,91.28
2018-07-13T06:28:28.372Z,90.52
2018-07-13T06:29:28.378Z,90.90
2018-07-13T06:30:28.374Z,90.70
2018-07-13T06:31:28.411Z,90.80
2018-07-13T06:32:28.377Z,89.94
2018-07-13T06:33:28.379Z,89.46
2018-07-13T06:34:28.384Z,89.22
2018-07-13T06:35:28.382Z,89.26
2018-07-13T06:36:28.384Z,89.36
2018-07-13T06:37:28.385Z,89.31
2018-07-13T06:38:28.386Z,89.50
2018-07-13T06:39:28.389Z,90.52
2018-07-13T06:40:28.389Z,89.17
2018-07-13T06:41:28.391Z,88.49
2018-07-13T06:42:28.392Z,88.73
2018-07-13T06:43:28.393Z,88.54
2018-07-13T06:44:28.395Z,87.39
2018-07-13T06:45:28.398Z,87.19
2018-07-13T06:46:28.403Z,87.87
2018-07-13T06:47:28.402Z,87.58
2018-07-13T06:48:28.424Z,87.87
2018-07-13T06:49:28.404Z,87.49
2018-07-13T06:50:28.457Z,87.01
2018-07-13T06:51:28.407Z,87.49
2018-07-13T06:52:28.408Z,87.68
2018-07-13T06:53:28.413Z,88.16
2018-07-13T06:54:28.413Z,87.96
2018-07-13T06:55:28.414Z,88.06
2018-07-13T06:56:28.447Z,87.10
2018-07-13T06:57:28.418Z,89.50
2018-07-13T06:58:28.420Z,87.68
2018-07-13T06:59:28.421Z,89.12
2018-07-13T07:00:28.425Z,89.60
2018-07-13T07:01:28.426Z,89.89
2018-07-13T07:02:28.446Z,89.69
2018-07-13T07:03:28.429Z,89.50
2018-07-13T07:04:28.430Z,89.02
2018-07-13T07:05:28.433Z,89.12
2018-07-13T07:06:28.434Z,89.36
2018-07-13T07:07:28.456Z,89.36
2018-07-13T07:08:28.436Z,89.26
2018-07-13T07:09:28.446Z,89.26
2018-07-13T07:10:28.445Z,89.74
2018-07-13T07:11:28.443Z,89.54
2018-07-13T07:12:28.445Z,89.26
2018-07-13T07:13:28.447Z,90.70
2018-07-13T07:14:28.449Z,88.97
2018-07-13T07:15:28.453Z,89.59
2018-07-13T07:16:28.452Z,90.45
2018-07-13T07:17:28.456Z,89.40
2018-07-13T07:18:28.621Z,89.59
2018-07-13T07:19:28.461Z,89.88
2018-07-13T07:20:28.462Z,88.63
2018-07-13T07:21:28.574Z,86.99
2018-07-13T07:22:28.467Z,86.08
2018-07-13T07:23:28.510Z,85.31
2018-07-13T07:24:28.476Z,85.69
2018-07-13T07:25:28.474Z,87.42
2018-07-13T07:26:28.476Z,86.75
2018-07-13T07:27:28.510Z,85.02
2018-07-13T07:28:28.481Z,85.60
2018-07-13T07:29:28.484Z,85.50
2018-07-13T07:30:28.490Z,84.48
2018-07-13T07:31:28.490Z,85.74
2018-07-13T07:32:28.491Z,86.31
2018-07-13T07:33:28.496Z,84.72
2018-07-13T07:34:28.499Z,83.18
2018-07-13T07:35:28.503Z,81.68
2018-07-13T07:36:28.506Z,81.29
2018-07-13T07:37:28.510Z,82.83
2018-07-13T07:38:28.593Z,82.01
2018-07-13T07:39:28.518Z,80.76
2018-07-13T07:40:28.522Z,81.77
2018-07-13T07:41:28.525Z,81.87
2018-07-13T07:42:28.562Z,81.77
2018-07-13T07:43:28.536Z,80.23
2018-07-13T07:44:28.539Z,80.14
2018-07-13T07:45:28.544Z,79.27
2018-07-13T07:46:28.550Z,80.85
2018-07-13T07:47:28.554Z,80.27
2018-07-13T07:48:28.558Z,80.27
2018-07-13T07:49:28.562Z,81.27
2018-07-13T07:50:28.572Z,80.89
2018-07-13T07:51:28.590Z,80.12
2018-07-13T07:52:28.580Z,79.54
2018-07-13T07:53:28.582Z,78.67
2018-07-13T07:54:28.589Z,79.44
2018-07-13T07:55:28.595Z,79.39
2018-07-13T07:56:28.647Z,78.81
2018-07-13T07:57:28.665Z,79.00
2018-07-13T07:58:28.610Z,78.81
2018-07-13T07:59:28.614Z,78.71
2018-07-13T08:00:28.621Z,77.46
2018-07-13T08:01:28.626Z,77.55
2018-07-13T08:02:28.631Z,77.17
2018-07-13T08:03:28.638Z,75.27
2018-07-13T08:04:28.646Z,76.34
2018-07-13T08:05:28.649Z,74.02
2018-07-13T08:06:28.722Z,71.64
2018-07-13T08:07:28.730Z,71.90
2018-07-13T08:08:28.669Z,72.22
2018-07-13T08:09:28.680Z,71.22
2018-07-13T08:10:28.686Z,70.68
2018-07-13T08:11:28.742Z,70.04
2018-07-13T08:12:28.705Z,68.14
2018-07-13T08:13:28.754Z,64.92
2018-07-13T08:14:28.763Z,62.85
2018-07-13T08:15:28.731Z,61.52
2018-07-13T08:16:28.741Z,60.68
2018-07-13T08:17:28.751Z,59.91
2018-07-13T08:18:28.764Z,59.13
2018-07-13T08:19:28.777Z,60.00
2018-07-13T08:20:28.786Z,59.84
2018-07-13T08:21:28.798Z,60.20
2018-07-13T08:22:28.810Z,58.74
2018-07-13T08:23:28.821Z,60.17
2018-07-13T08:24:28.834Z,60.58
2018-07-13T08:25:28.937Z,61.07
2018-07-13T08:26:28.860Z,62.75
2018-07-13T08:27:28.875Z,60.55
2018-07-13T08:28:28.887Z,60.09
2018-07-13T08:29:28.899Z,56.60
2018-07-13T08:30:28.912Z,55.69
2018-07-13T08:31:28.928Z,58.22
2018-07-13T08:32:28.939Z,57.37
2018-07-13T08:33:28.952Z,57.50
2018-07-13T08:34:28.969Z,56.62
2018-07-13T08:35:28.982Z,55.00
2018-07-13T08:36:28.993Z,52.98
2018-07-13T08:37:29.009Z,52.14
2018-07-13T08:38:29.023Z,52.82
2018-07-13T08:39:29.037Z,53.01
2018-07-13T08:40:29.052Z,55.54
2018-07-13T08:41:29.069Z,55.18
2018-07-13T08:42:29.081Z,54.89
2018-07-13T08:43:29.096Z,54.11
2018-07-13T08:44:29.112Z,52.45
2018-07-13T08:45:29.126Z,52.19
2018-07-13T08:46:29.140Z,50.92
2018-07-13T08:47:29.156Z,51.31
2018-07-13T08:48:29.170Z,51.12
2018-07-13T08:49:29.187Z,52.67
2018-07-13T08:50:29.277Z,50.43
2018-07-13T08:51:29.230Z,52.37
2018-07-13T08:52:29.233Z,53.49
2018-07-13T08:53:29.247Z,56.18
2018-07-13T08:54:29.264Z,56.93
2018-07-13T08:55:29.279Z,58.55
2018-07-13T08:56:29.293Z,59.59
2018-07-13T08:57:29.307Z,59.59
2018-07-13T08:58:29.324Z,60.65
2018-07-13T08:59:29.341Z,60.55
2018-07-13T09:00:29.353Z,60.65
2018-07-13T09:01:29.370Z,59.71
2018-07-13T09:02:29.382Z,58.74
2018-07-13T09:03:29.396Z,58.55
2018-07-13T09:04:29.722Z,59.84
2018-07-13T09:05:29.425Z,59.16
2018-07-13T09:06:29.467Z,59.42
2018-07-13T09:07:29.498Z,59.26
2018-07-13T09:08:29.468Z,58.12
2018-07-13T09:09:29.481Z,58.39
2018-07-13T09:10:29.520Z,59.16
2018-07-13T09:11:29.553Z,57.87
2018-07-13T09:12:29.524Z,58.36
2018-07-13T09:13:29.536Z,58.55
2018-07-13T09:14:29.551Z,58.65
2018-07-13T09:15:29.586Z,58.06
2018-07-13T09:16:29.579Z,59.00
2018-07-13T09:17:29.594Z,57.44
2018-07-13T09:18:29.607Z,58.61
2018-07-13T09:19:29.621Z,57.51
2018-07-13T09:20:29.634Z,57.68
2018-07-13T09:21:29.649Z,57.00
2018-07-13T09:22:29.662Z,56.51
2018-07-13T09:23:29.676Z,57.07
2018-07-13T09:24:29.689Z,58.62
2018-07-13T09:25:29.702Z,58.14
2018-07-13T09:26:29.716Z,56.00
2018-07-13T09:27:29.730Z,56.29
2018-07-13T09:28:29.745Z,55.81
2018-07-13T09:29:29.757Z,55.35
2018-07-13T09:30:29.770Z,57.61
2018-07-13T09:31:29.784Z,57.44
2018-07-13T09:32:29.797Z,56.11
2018-07-13T09:33:29.808Z,57.69
2018-07-13T09:34:29.823Z,53.93
2018-07-13T09:35:29.837Z,53.93
2018-07-13T09:36:29.852Z,49.80
2018-07-13T09:37:29.864Z,47.10
2018-07-13T09:38:29.893Z,45.54
2018-07-13T09:39:29.894Z,46.34
2018-07-13T09:40:29.903Z,45.25
2018-07-13T09:41:29.918Z,45.52
2018-07-13T09:42:29.934Z,46.28
2018-07-13T09:43:29.945Z,48.05
2018-07-13T09:44:29.957Z,48.61
2018-07-13T09:45:29.972Z,47.86
2018-07-13T09:46:29.992Z,48.75
2018-07-13T09:47:30.002Z,46.71
2018-07-13T09:48:30.013Z,45.67
2018-07-13T09:49:30.027Z,44.40
2018-07-13T09:50:30.040Z,45.37
2018-07-13T09:51:30.055Z,45.78
2018-07-13T09:52:30.067Z,46.27
2018-07-13T09:53:30.112Z,46.08
2018-07-13T09:54:30.095Z,46.10
2018-07-13T09:55:30.111Z,45.12
2018-07-13T09:56:30.125Z,45.81
2018-07-13T09:57:30.139Z,48.44
2018-07-13T09:58:30.718Z,46.78
2018-07-13T09:59:30.167Z,46.88
2018-07-13T10:00:30.431Z,43.84
2018-07-13T10:01:30.353Z,43.43
2018-07-13T10:02:30.449Z,42.91
2018-07-13T10:03:30.226Z,44.43
2018-07-13T10:04:30.238Z,45.75
2018-07-13T10:05:30.521Z,45.82
2018-07-13T10:06:30.286Z,49.71
2018-07-13T10:07:30.281Z,51.99
2018-07-13T10:08:30.294Z,51.43
2018-07-13T10:09:30.308Z,49.12
2018-07-13T10:10:30.321Z,49.24
2018-07-13T10:11:30.336Z,46.03
2018-07-13T10:12:30.348Z,46.30
2018-07-13T10:13:30.455Z,49.61
2018-07-13T10:14:30.375Z,49.12
2018-07-13T10:15:30.388Z,51.17
2018-07-13T10:16:30.418Z,47.30
2018-07-13T10:17:30.519Z,46.03
2018-07-13T10:18:30.427Z,46.91
2018-07-13T10:19:30.440Z,44.40
2018-07-13T10:20:30.452Z,44.49
2018-07-13T10:21:30.468Z,42.74
2018-07-13T10:22:30.481Z,41.96
2018-07-13T10:23:30.506Z,46.51
2018-07-13T10:24:30.506Z,48.36
2018-07-13T10:25:30.565Z,42.53
2018-07-13T10:26:30.537Z,43.38
2018-07-13T10:27:30.548Z,42.85
2018-07-13T10:28:30.560Z,44.09
2018-07-13T10:29:30.573Z,45.04
2018-07-13T10:30:30.585Z,44.34
2018-07-13T10:31:30.599Z,44.64
2018-07-13T10:32:30.611Z,43.01
2018-07-13T10:33:30.623Z,49.05
2018-07-13T10:34:30.638Z,43.44
2018-07-13T10:35:32.127Z,41.67
2018-07-13T10:36:30.661Z,42.81
2018-07-13T10:37:30.676Z,42.60
2018-07-13T10:38:30.688Z,42.99
2018-07-13T10:39:30.701Z,42.79
2018-07-13T10:40:30.715Z,45.02
2018-07-13T10:41:30.723Z,45.80
2018-07-13T10:42:30.736Z,45.97
2018-07-13T10:43:30.749Z,46.07
2018-07-13T10:44:30.758Z,44.68
2018-07-13T10:45:30.772Z,45.37
2018-07-13T10:46:32.062Z,47.91
2018-07-13T10:47:30.795Z,48.97
2018-07-13T10:48:30.807Z,48.90
2018-07-13T10:49:30.818Z,49.29
2018-07-13T10:50:30.833Z,49.90
2018-07-13T10:51:30.849Z,49.34
2018-07-13T10:52:30.852Z,48.93
2018-07-13T10:53:30.862Z,46.11
2018-07-13T10:54:30.876Z,49.34
2018-07-13T10:55:30.886Z,46.45
2018-07-13T10:56:30.896Z,48.90
2018-07-13T10:57:31.102Z,48.22
2018-07-13T10:58:31.018Z,46.74
2018-07-13T10:59:31.010Z,49.39
2018-07-13T11:00:30.943Z,48.22
2018-07-13T11:01:30.954Z,49.02
2018-07-13T11:02:30.966Z,47.25
2018-07-13T11:03:30.977Z,45.77
2018-07-13T11:04:31.074Z,46.45
2018-07-13T11:05:31.000Z,47.59
2018-07-13T11:06:31.012Z,47.78
2018-07-13T11:07:31.023Z,48.97
2018-07-13T11:08:31.112Z,52.96
2018-07-13T11:09:31.046Z,50.51
2018-07-13T11:10:31.056Z,52.15
2018-07-13T11:11:31.068Z,52.25
2018-07-13T11:12:31.079Z,53.78
2018-07-13T11:13:31.107Z,54.56
2018-07-13T11:14:31.098Z,50.41
2018-07-13T11:15:31.111Z,52.57
2018-07-13T11:16:31.118Z,48.20
2018-07-13T11:17:31.363Z,50.63
2018-07-13T11:18:31.164Z,48.30
2018-07-13T11:19:31.152Z,48.03
2018-07-13T11:20:31.164Z,45.98
2018-07-13T11:21:31.173Z,47.15
2018-07-13T11:22:31.184Z,45.79
2018-07-13T11:23:31.195Z,48.22
2018-07-13T11:24:31.207Z,45.50
2018-07-13T11:25:31.216Z,46.35
2018-07-13T11:26:31.227Z,48.41
2018-07-13T11:27:31.238Z,46.06
2018-07-13T11:28:31.248Z,46.50
2018-07-13T11:29:31.258Z,47.25
2018-07-13T11:30:31.270Z,48.39
2018-07-13T11:31:31.281Z,51.53
2018-07-13T11:32:31.290Z,53.95
2018-07-13T11:33:31.301Z,53.69
2018-07-13T11:34:31.391Z,53.69
2018-07-13T11:35:31.322Z,54.36
2018-07-13T11:36:31.330Z,48.05
2018-07-13T11:37:31.340Z,50.68
2018-07-13T11:38:31.373Z,51.48
2018-07-13T11:39:31.395Z,50.68
2018-07-13T11:40:31.370Z,51.84
2018-07-13T11:41:31.380Z,50.58
2018-07-13T11:42:31.391Z,49.15
2018-07-13T11:43:31.397Z,53.78
2018-07-13T11:44:31.406Z,48.85
2018-07-13T11:45:31.417Z,45.92
2018-07-13T11:46:31.426Z,46.77
2018-07-13T11:47:31.436Z,47.81
2018-07-13T11:48:31.445Z,48.20
2018-07-13T11:49:32.121Z,47.69
2018-07-13T11:50:31.464Z,48.97
2018-07-13T11:51:31.474Z,48.00
2018-07-13T11:52:31.486Z,47.72
2018-07-13T11:53:31.493Z,48.97
2018-07-13T11:54:31.579Z,49.46
2018-07-13T11:55:31.514Z,48.90
2018-07-13T11:56:31.522Z,47.72
2018-07-13T11:57:31.531Z,46.75
2018-07-13T11:58:31.541Z,47.93
2018-07-13T11:59:31.649Z,49.80
2018-07-13T12:00:31.609Z,46.86
2018-07-13T12:01:31.574Z,48.54
2018-07-13T12:02:31.604Z,50.70
2018-07-13T12:03:31.641Z,46.58
2018-07-13T12:04:31.599Z,45.97
2018-07-13T12:05:31.608Z,47.79
2018-07-13T12:06:31.617Z,49.75
2018-07-13T12:07:31.700Z,51.53
2018-07-13T12:08:31.635Z,48.13
2018-07-13T12:09:31.645Z,47.74
2018-07-13T12:10:31.653Z,47.86
2018-07-13T12:11:31.663Z,51.77
2018-07-13T12:12:31.731Z,51.99
2018-07-13T12:13:31.680Z,52.79
2018-07-13T12:14:31.769Z,52.89
2018-07-13T12:15:31.701Z,49.39
2018-07-13T12:16:31.729Z,47.66
2018-07-13T12:17:31.814Z,45.64
2018-07-13T12:18:31.731Z,47.71
2018-07-13T12:19:31.741Z,43.15
2018-07-13T12:20:31.747Z,47.05
2018-07-13T12:21:31.757Z,45.10
2018-07-13T12:22:31.767Z,47.15
2018-07-13T12:23:31.778Z,46.27
2018-07-13T12:24:31.786Z,45.88
2018-07-13T12:25:31.797Z,46.95
2018-07-13T12:26:31.807Z,44.52
2018-07-13T12:27:31.819Z,43.62
2018-07-13T12:28:31.827Z,45.08
2018-07-13T12:29:31.838Z,45.76
2018-07-13T12:30:31.849Z,47.71
2018-07-13T12:31:31.859Z,46.32
2018-07-13T12:32:32.019Z,47.39
2018-07-13T12:33:31.879Z,43.38
2018-07-13T12:34:31.890Z,44.65
2018-07-13T12:35:31.900Z,44.82
2018-07-13T12:36:31.908Z,44.33
2018-07-13T12:37:32.003Z,45.01
2018-07-13T12:38:31.933Z,44.14
2018-07-13T12:39:31.967Z,47.83
2018-07-13T12:40:31.955Z,48.34
2018-07-13T12:41:31.962Z,46.11
2018-07-13T12:42:31.972Z,44.55
2018-07-13T12:43:31.984Z,42.50
2018-07-13T12:44:31.993Z,43.26
2018-07-13T12:45:32.002Z,47.17
2018-07-13T12:46:32.012Z,44.26
2018-07-13T12:47:32.022Z,42.00
2018-07-13T12:48:32.032Z,43.05
2018-07-13T12:49:32.146Z,43.05
2018-07-13T12:50:32.103Z,43.24
2018-07-13T12:51:32.061Z,43.41
2018-07-13T12:52:32.070Z,47.52